sensor_id;sensor_type;location;lat;lon;timestamp;P1;durP1;ratioP1;P2;durP2;ratioP2
76053;SDS011;64752;48.870;9.082;2024-03-17T00:00:42;38.92;;;19.83;;
76053;SDS011;64752;48.870;9.082;2024-03-17T00:03:07;31.65;;;18.52;;
76053;SDS011;64752;48.870;9.082;2024-03-17T00:05:36;43.20;;;22.95;;
76053;SDS011;64752;48.870;9.082;2024-03-17T00:08:03;52.90;;;25.85;;
76053;SDS011;64752;48.870;9.082;2024-03-17T00:10:33;45.83;;;23.27;;
76053;SDS011;64752;48.870;9.082;2024-03-17T00:12:59;39.75;;;20.38;;
76053;SDS011;64752;48.870;9.082;2024-03-17T00:15:25;39.50;;;20.65;;
76053;SDS011;64752;48.870;9.082;2024-03-17T00:17:51;37.35;;;19.00;;
76053;SDS011;64752;48.870;9.082;2024-03-17T00:20:16;33.58;;;19.50;;
76053;SDS011;64752;48.870;9.082;2024-03-17T00:22:47;39.83;;;23.02;;
76053;SDS011;64752;48.870;9.082;2024-03-17T00:25:12;42.53;;;25.17;;
76053;SDS011;64752;48.870;9.082;2024-03-17T00:27:38;48.03;;;27.15;;
76053;SDS011;64752;48.870;9.082;2024-03-17T00:30:09;48.78;;;25.48;;
76053;SDS011;64752;48.870;9.082;2024-03-17T00:32:39;47.88;;;26.30;;
76053;SDS011;64752;48.870;9.082;2024-03-17T00:35:05;55.00;;;27.50;;
76053;SDS011;64752;48.870;9.082;2024-03-17T00:39:58;51.53;;;26.52;;
76053;SDS011;64752;48.870;9.082;2024-03-17T00:42:24;49.70;;;27.75;;
76053;SDS011;64752;48.870;9.082;2024-03-17T00:44:49;53.10;;;26.80;;
76053;SDS011;64752;48.870;9.082;2024-03-17T00:47:14;59.95;;;27.80;;
76053;SDS011;64752;48.870;9.082;2024-03-17T00:49:40;44.92;;;26.02;;
76053;SDS011;64752;48.870;9.082;2024-03-17T00:52:05;53.28;;;26.17;;
76053;SDS011;64752;48.870;9.082;2024-03-17T00:54:30;50.80;;;27.42;;
76053;SDS011;64752;48.870;9.082;2024-03-17T00:56:57;54.87;;;27.10;;
76053;SDS011;64752;48.870;9.082;2024-03-17T00:59:22;55.78;;;27.20;;
76053;SDS011;64752;48.870;9.082;2024-03-17T01:01:47;61.42;;;28.58;;
76053;SDS011;64752;48.870;9.082;2024-03-17T01:04:12;53.05;;;27.38;;
76053;SDS011;64752;48.870;9.082;2024-03-17T01:06:38;49.85;;;27.25;;
76053;SDS011;64752;48.870;9.082;2024-03-17T01:09:05;61.60;;;30.38;;
76053;SDS011;64752;48.870;9.082;2024-03-17T01:11:31;62.40;;;31.88;;
76053;SDS011;64752;48.870;9.082;2024-03-17T01:13:56;59.72;;;30.42;;
76053;SDS011;64752;48.870;9.082;2024-03-17T01:16:22;62.30;;;33.08;;
76053;SDS011;64752;48.870;9.082;2024-03-17T01:18:48;59.72;;;31.25;;
76053;SDS011;64752;48.870;9.082;2024-03-17T01:21:13;56.15;;;30.35;;
76053;SDS011;64752;48.870;9.082;2024-03-17T01:23:38;62.40;;;31.40;;
76053;SDS011;64752;48.870;9.082;2024-03-17T01:26:04;51.28;;;29.15;;
76053;SDS011;64752;48.870;9.082;2024-03-17T01:28:30;58.67;;;27.77;;
76053;SDS011;64752;48.870;9.082;2024-03-17T01:30:55;63.95;;;30.45;;
76053;SDS011;64752;48.870;9.082;2024-03-17T01:33:21;53.20;;;28.60;;
76053;SDS011;64752;48.870;9.082;2024-03-17T01:35:46;57.63;;;28.73;;
76053;SDS011;64752;48.870;9.082;2024-03-17T01:38:11;53.80;;;28.83;;
76053;SDS011;64752;48.870;9.082;2024-03-17T01:40:37;51.53;;;28.05;;
76053;SDS011;64752;48.870;9.082;2024-03-17T01:43:02;55.88;;;27.48;;
76053;SDS011;64752;48.870;9.082;2024-03-17T01:45:33;52.97;;;28.17;;
76053;SDS011;64752;48.870;9.082;2024-03-17T01:48:00;55.08;;;26.95;;
76053;SDS011;64752;48.870;9.082;2024-03-17T01:50:35;50.60;;;27.13;;
76053;SDS011;64752;48.870;9.082;2024-03-17T01:53:02;53.75;;;26.80;;
76053;SDS011;64752;48.870;9.082;2024-03-17T01:55:30;49.70;;;24.65;;
76053;SDS011;64752;48.870;9.082;2024-03-17T01:57:57;55.42;;;26.83;;
76053;SDS011;64752;48.870;9.082;2024-03-17T02:00:23;58.55;;;27.90;;
76053;SDS011;64752;48.870;9.082;2024-03-17T02:02:48;52.58;;;27.15;;
76053;SDS011;64752;48.870;9.082;2024-03-17T02:05:14;49.38;;;26.55;;
76053;SDS011;64752;48.870;9.082;2024-03-17T02:07:39;55.78;;;28.00;;
76053;SDS011;64752;48.870;9.082;2024-03-17T02:10:05;41.63;;;24.27;;
76053;SDS011;64752;48.870;9.082;2024-03-17T02:12:31;46.67;;;24.98;;
76053;SDS011;64752;48.870;9.082;2024-03-17T02:14:57;54.10;;;26.23;;
76053;SDS011;64752;48.870;9.082;2024-03-17T02:17:23;51.42;;;24.50;;
76053;SDS011;64752;48.870;9.082;2024-03-17T02:19:50;53.03;;;24.88;;
76053;SDS011;64752;48.870;9.082;2024-03-17T02:22:16;38.67;;;21.20;;
76053;SDS011;64752;48.870;9.082;2024-03-17T02:24:44;38.42;;;21.27;;
76053;SDS011;64752;48.870;9.082;2024-03-17T02:27:10;40.50;;;21.52;;
76053;SDS011;64752;48.870;9.082;2024-03-17T02:29:35;38.63;;;20.08;;
76053;SDS011;64752;48.870;9.082;2024-03-17T02:32:05;35.00;;;19.98;;
76053;SDS011;64752;48.870;9.082;2024-03-17T02:34:34;35.17;;;19.90;;
76053;SDS011;64752;48.870;9.082;2024-03-17T02:37:00;31.35;;;17.80;;
76053;SDS011;64752;48.870;9.082;2024-03-17T02:39:27;33.22;;;18.33;;
76053;SDS011;64752;48.870;9.082;2024-03-17T02:41:58;33.47;;;19.10;;
76053;SDS011;64752;48.870;9.082;2024-03-17T02:44:24;36.58;;;20.55;;
76053;SDS011;64752;48.870;9.082;2024-03-17T02:46:49;30.73;;;18.77;;
76053;SDS011;64752;48.870;9.082;2024-03-17T02:49:15;38.22;;;19.60;;
76053;SDS011;64752;48.870;9.082;2024-03-17T02:51:43;30.85;;;18.83;;
76053;SDS011;64752;48.870;9.082;2024-03-17T02:54:09;30.73;;;18.83;;
76053;SDS011;64752;48.870;9.082;2024-03-17T02:56:34;35.78;;;20.05;;
76053;SDS011;64752;48.870;9.082;2024-03-17T02:59:00;37.35;;;21.45;;
76053;SDS011;64752;48.870;9.082;2024-03-17T03:01:25;40.78;;;23.08;;
76053;SDS011;64752;48.870;9.082;2024-03-17T03:03:50;40.30;;;21.92;;
76053;SDS011;64752;48.870;9.082;2024-03-17T03:06:16;35.17;;;20.42;;
76053;SDS011;64752;48.870;9.082;2024-03-17T03:08:44;34.67;;;20.25;;
76053;SDS011;64752;48.870;9.082;2024-03-17T03:11:14;40.42;;;22.00;;
76053;SDS011;64752;48.870;9.082;2024-03-17T03:13:41;36.20;;;21.30;;
76053;SDS011;64752;48.870;9.082;2024-03-17T03:16:08;40.05;;;21.65;;
76053;SDS011;64752;48.870;9.082;2024-03-17T03:18:35;43.70;;;23.58;;
76053;SDS011;64752;48.870;9.082;2024-03-17T03:21:01;42.37;;;22.30;;
76053;SDS011;64752;48.870;9.082;2024-03-17T03:23:27;44.67;;;22.50;;
76053;SDS011;64752;48.870;9.082;2024-03-17T03:25:56;49.70;;;23.90;;
76053;SDS011;64752;48.870;9.082;2024-03-17T03:28:22;40.92;;;22.02;;
76053;SDS011;64752;48.870;9.082;2024-03-17T03:30:48;46.05;;;22.85;;
76053;SDS011;64752;48.870;9.082;2024-03-17T03:33:13;45.97;;;23.63;;
76053;SDS011;64752;48.870;9.082;2024-03-17T03:35:39;45.63;;;23.73;;
76053;SDS011;64752;48.870;9.082;2024-03-17T03:38:04;47.03;;;23.13;;
76053;SDS011;64752;48.870;9.082;2024-03-17T03:40:30;43.33;;;23.10;;
76053;SDS011;64752;48.870;9.082;2024-03-17T03:42:57;50.33;;;23.63;;
76053;SDS011;64752;48.870;9.082;2024-03-17T03:47:49;43.63;;;22.60;;
76053;SDS011;64752;48.870;9.082;2024-03-17T03:50:15;48.25;;;24.02;;
76053;SDS011;64752;48.870;9.082;2024-03-17T03:52:42;54.10;;;24.60;;
76053;SDS011;64752;48.870;9.082;2024-03-17T03:55:08;52.10;;;23.92;;
76053;SDS011;64752;48.870;9.082;2024-03-17T03:57:40;53.60;;;24.95;;
76053;SDS011;64752;48.870;9.082;2024-03-17T04:00:15;48.08;;;25.02;;
76053;SDS011;64752;48.870;9.082;2024-03-17T04:02:41;61.05;;;26.15;;
76053;SDS011;64752;48.870;9.082;2024-03-17T04:05:07;54.05;;;25.80;;
76053;SDS011;64752;48.870;9.082;2024-03-17T04:07:33;56.03;;;26.58;;
76053;SDS011;64752;48.870;9.082;2024-03-17T04:12:26;45.70;;;23.83;;
76053;SDS011;64752;48.870;9.082;2024-03-17T04:14:52;55.25;;;25.40;;
76053;SDS011;64752;48.870;9.082;2024-03-17T04:17:21;52.15;;;25.48;;
76053;SDS011;64752;48.870;9.082;2024-03-17T04:19:50;50.08;;;24.77;;
76053;SDS011;64752;48.870;9.082;2024-03-17T04:22:16;57.47;;;26.17;;
76053;SDS011;64752;48.870;9.082;2024-03-17T04:24:45;53.90;;;25.38;;
76053;SDS011;64752;48.870;9.082;2024-03-17T04:27:11;55.35;;;25.70;;
76053;SDS011;64752;48.870;9.082;2024-03-17T04:29:38;48.63;;;24.95;;
76053;SDS011;64752;48.870;9.082;2024-03-17T04:32:04;48.07;;;24.43;;
76053;SDS011;64752;48.870;9.082;2024-03-17T04:34:30;55.58;;;25.50;;
76053;SDS011;64752;48.870;9.082;2024-03-17T04:36:56;54.15;;;24.80;;
76053;SDS011;64752;48.870;9.082;2024-03-17T04:39:22;51.40;;;25.25;;
76053;SDS011;64752;48.870;9.082;2024-03-17T04:41:47;44.35;;;23.60;;
76053;SDS011;64752;48.870;9.082;2024-03-17T04:44:13;50.38;;;24.88;;
76053;SDS011;64752;48.870;9.082;2024-03-17T04:46:39;50.30;;;25.70;;
76053;SDS011;64752;48.870;9.082;2024-03-17T04:49:04;53.72;;;26.00;;
76053;SDS011;64752;48.870;9.082;2024-03-17T04:51:29;51.28;;;26.05;;
76053;SDS011;64752;48.870;9.082;2024-03-17T04:53:56;52.85;;;25.50;;
76053;SDS011;64752;48.870;9.082;2024-03-17T04:56:22;62.03;;;25.70;;
76053;SDS011;64752;48.870;9.082;2024-03-17T04:58:47;56.13;;;26.33;;
76053;SDS011;64752;48.870;9.082;2024-03-17T05:01:12;67.05;;;29.13;;
76053;SDS011;64752;48.870;9.082;2024-03-17T05:03:38;61.60;;;29.33;;
76053;SDS011;64752;48.870;9.082;2024-03-17T05:06:04;56.88;;;28.10;;
76053;SDS011;64752;48.870;9.082;2024-03-17T05:08:31;58.95;;;27.38;;
76053;SDS011;64752;48.870;9.082;2024-03-17T05:13:22;57.63;;;24.60;;
76053;SDS011;64752;48.870;9.082;2024-03-17T05:15:48;61.17;;;26.60;;
76053;SDS011;64752;48.870;9.082;2024-03-17T05:18:13;65.40;;;27.23;;
76053;SDS011;64752;48.870;9.082;2024-03-17T05:20:38;64.40;;;28.55;;
76053;SDS011;64752;48.870;9.082;2024-03-17T05:23:04;62.30;;;28.30;;
76053;SDS011;64752;48.870;9.082;2024-03-17T05:25:29;68.00;;;29.95;;
76053;SDS011;64752;48.870;9.082;2024-03-17T05:27:54;73.80;;;30.23;;
76053;SDS011;64752;48.870;9.082;2024-03-17T05:30:20;70.53;;;30.58;;
76053;SDS011;64752;48.870;9.082;2024-03-17T05:32:45;73.78;;;32.22;;
76053;SDS011;64752;48.870;9.082;2024-03-17T05:35:11;76.80;;;32.97;;
76053;SDS011;64752;48.870;9.082;2024-03-17T05:37:36;81.72;;;33.80;;
76053;SDS011;64752;48.870;9.082;2024-03-17T05:40:01;71.43;;;29.35;;
76053;SDS011;64752;48.870;9.082;2024-03-17T05:42:27;70.72;;;30.30;;
76053;SDS011;64752;48.870;9.082;2024-03-17T05:44:53;69.15;;;31.73;;
76053;SDS011;64752;48.870;9.082;2024-03-17T05:47:18;65.78;;;30.25;;
76053;SDS011;64752;48.870;9.082;2024-03-17T05:49:44;62.08;;;29.17;;
76053;SDS011;64752;48.870;9.082;2024-03-17T05:52:10;62.93;;;29.27;;
76053;SDS011;64752;48.870;9.082;2024-03-17T05:54:36;64.78;;;29.63;;
76053;SDS011;64752;48.870;9.082;2024-03-17T05:57:02;65.87;;;29.47;;
76053;SDS011;64752;48.870;9.082;2024-03-17T05:59:29;55.80;;;28.17;;
76053;SDS011;64752;48.870;9.082;2024-03-17T06:01:57;55.33;;;26.67;;
76053;SDS011;64752;48.870;9.082;2024-03-17T06:04:23;53.05;;;28.33;;
76053;SDS011;64752;48.870;9.082;2024-03-17T06:06:49;48.22;;;25.92;;
76053;SDS011;64752;48.870;9.082;2024-03-17T06:09:14;55.92;;;28.35;;
76053;SDS011;64752;48.870;9.082;2024-03-17T06:11:42;47.10;;;26.05;;
76053;SDS011;64752;48.870;9.082;2024-03-17T06:14:08;52.80;;;27.33;;
76053;SDS011;64752;48.870;9.082;2024-03-17T06:16:36;51.00;;;27.17;;
76053;SDS011;64752;48.870;9.082;2024-03-17T06:19:02;46.83;;;25.88;;
76053;SDS011;64752;48.870;9.082;2024-03-17T06:21:28;43.95;;;25.13;;
76053;SDS011;64752;48.870;9.082;2024-03-17T06:23:53;43.30;;;25.98;;
76053;SDS011;64752;48.870;9.082;2024-03-17T06:26:19;43.58;;;26.70;;
76053;SDS011;64752;48.870;9.082;2024-03-17T06:28:45;47.83;;;26.70;;
76053;SDS011;64752;48.870;9.082;2024-03-17T06:31:11;45.28;;;26.98;;
76053;SDS011;64752;48.870;9.082;2024-03-17T06:33:36;49.38;;;27.15;;
76053;SDS011;64752;48.870;9.082;2024-03-17T06:36:02;42.85;;;26.15;;
76053;SDS011;64752;48.870;9.082;2024-03-17T06:38:33;43.95;;;25.33;;
76053;SDS011;64752;48.870;9.082;2024-03-17T06:40:59;47.95;;;28.20;;
76053;SDS011;64752;48.870;9.082;2024-03-17T06:43:24;47.13;;;27.67;;
76053;SDS011;64752;48.870;9.082;2024-03-17T06:45:53;43.47;;;26.98;;
76053;SDS011;64752;48.870;9.082;2024-03-17T06:48:19;37.88;;;25.13;;
76053;SDS011;64752;48.870;9.082;2024-03-17T06:50:45;39.70;;;25.15;;
76053;SDS011;64752;48.870;9.082;2024-03-17T06:53:10;33.78;;;23.83;;
76053;SDS011;64752;48.870;9.082;2024-03-17T06:55:36;29.27;;;20.10;;
76053;SDS011;64752;48.870;9.082;2024-03-17T06:58:01;26.67;;;19.98;;
76053;SDS011;64752;48.870;9.082;2024-03-17T07:00:28;21.77;;;16.48;;
76053;SDS011;64752;48.870;9.082;2024-03-17T07:02:53;24.00;;;11.73;;
76053;SDS011;64752;48.870;9.082;2024-03-17T07:05:19;14.45;;;8.65;;
76053;SDS011;64752;48.870;9.082;2024-03-17T07:07:44;16.53;;;9.00;;
76053;SDS011;64752;48.870;9.082;2024-03-17T07:10:10;12.90;;;7.78;;
76053;SDS011;64752;48.870;9.082;2024-03-17T07:12:36;10.75;;;7.88;;
76053;SDS011;64752;48.870;9.082;2024-03-17T07:15:02;9.13;;;7.57;;
76053;SDS011;64752;48.870;9.082;2024-03-17T07:17:28;7.63;;;6.15;;
76053;SDS011;64752;48.870;9.082;2024-03-17T07:19:53;11.30;;;6.70;;
76053;SDS011;64752;48.870;9.082;2024-03-17T07:22:19;17.48;;;7.30;;
76053;SDS011;64752;48.870;9.082;2024-03-17T07:24:45;10.60;;;6.83;;
76053;SDS011;64752;48.870;9.082;2024-03-17T07:27:10;8.85;;;7.18;;
76053;SDS011;64752;48.870;9.082;2024-03-17T07:29:38;10.98;;;7.40;;
76053;SDS011;64752;48.870;9.082;2024-03-17T07:32:04;10.13;;;7.00;;
76053;SDS011;64752;48.870;9.082;2024-03-17T07:34:30;11.10;;;7.05;;
76053;SDS011;64752;48.870;9.082;2024-03-17T07:36:57;8.40;;;6.95;;
76053;SDS011;64752;48.870;9.082;2024-03-17T07:39:25;8.48;;;6.93;;
76053;SDS011;64752;48.870;9.082;2024-03-17T07:41:57;9.10;;;7.10;;
76053;SDS011;64752;48.870;9.082;2024-03-17T07:44:22;8.32;;;6.70;;
76053;SDS011;64752;48.870;9.082;2024-03-17T07:46:47;8.83;;;7.17;;
76053;SDS011;64752;48.870;9.082;2024-03-17T07:49:13;9.77;;;7.43;;
76053;SDS011;64752;48.870;9.082;2024-03-17T07:51:39;9.32;;;6.65;;
76053;SDS011;64752;48.870;9.082;2024-03-17T07:54:05;10.60;;;6.60;;
76053;SDS011;64752;48.870;9.082;2024-03-17T07:56:30;8.33;;;6.70;;
76053;SDS011;64752;48.870;9.082;2024-03-17T07:58:55;7.40;;;6.60;;
76053;SDS011;64752;48.870;9.082;2024-03-17T08:01:21;8.73;;;6.23;;
76053;SDS011;64752;48.870;9.082;2024-03-17T08:03:47;8.43;;;6.87;;
76053;SDS011;64752;48.870;9.082;2024-03-17T08:06:20;8.02;;;6.47;;
76053;SDS011;64752;48.870;9.082;2024-03-17T08:08:46;9.48;;;6.53;;
76053;SDS011;64752;48.870;9.082;2024-03-17T08:11:12;8.30;;;6.77;;
76053;SDS011;64752;48.870;9.082;2024-03-17T08:13:38;10.80;;;5.93;;
76053;SDS011;64752;48.870;9.082;2024-03-17T08:16:04;8.52;;;6.60;;
76053;SDS011;64752;48.870;9.082;2024-03-17T08:20:56;11.90;;;7.32;;
76053;SDS011;64752;48.870;9.082;2024-03-17T08:23:22;9.47;;;7.67;;
76053;SDS011;64752;48.870;9.082;2024-03-17T08:25:55;9.98;;;8.27;;
76053;SDS011;64752;48.870;9.082;2024-03-17T08:28:21;8.98;;;7.47;;
76053;SDS011;64752;48.870;9.082;2024-03-17T08:30:52;10.60;;;8.17;;
76053;SDS011;64752;48.870;9.082;2024-03-17T08:33:28;9.38;;;7.45;;
76053;SDS011;64752;48.870;9.082;2024-03-17T08:35:56;10.70;;;8.23;;
76053;SDS011;64752;48.870;9.082;2024-03-17T08:38:23;9.88;;;7.80;;
76053;SDS011;64752;48.870;9.082;2024-03-17T08:40:53;9.82;;;7.38;;
76053;SDS011;64752;48.870;9.082;2024-03-17T08:43:19;9.80;;;7.18;;
76053;SDS011;64752;48.870;9.082;2024-03-17T08:45:55;8.90;;;6.72;;
76053;SDS011;64752;48.870;9.082;2024-03-17T08:50:52;10.60;;;6.93;;
76053;SDS011;64752;48.870;9.082;2024-03-17T08:53:19;9.02;;;6.93;;
76053;SDS011;64752;48.870;9.082;2024-03-17T08:55:45;9.00;;;7.15;;
76053;SDS011;64752;48.870;9.082;2024-03-17T08:58:10;9.10;;;7.23;;
76053;SDS011;64752;48.870;9.082;2024-03-17T09:00:35;8.27;;;7.03;;
76053;SDS011;64752;48.870;9.082;2024-03-17T09:03:01;8.27;;;6.72;;
76053;SDS011;64752;48.870;9.082;2024-03-17T09:05:27;7.38;;;6.45;;
76053;SDS011;64752;48.870;9.082;2024-03-17T09:07:53;8.13;;;6.47;;
76053;SDS011;64752;48.870;9.082;2024-03-17T09:10:18;7.47;;;6.53;;
76053;SDS011;64752;48.870;9.082;2024-03-17T09:12:43;8.93;;;6.80;;
76053;SDS011;64752;48.870;9.082;2024-03-17T09:15:09;8.77;;;7.00;;
76053;SDS011;64752;48.870;9.082;2024-03-17T09:17:36;8.88;;;6.65;;
76053;SDS011;64752;48.870;9.082;2024-03-17T09:20:02;11.07;;;7.53;;
76053;SDS011;64752;48.870;9.082;2024-03-17T09:22:28;7.90;;;6.03;;
76053;SDS011;64752;48.870;9.082;2024-03-17T09:24:54;8.07;;;6.40;;
76053;SDS011;64752;48.870;9.082;2024-03-17T09:27:19;8.97;;;6.40;;
76053;SDS011;64752;48.870;9.082;2024-03-17T09:29:47;8.35;;;6.43;;
76053;SDS011;64752;48.870;9.082;2024-03-17T09:32:12;9.20;;;6.83;;
76053;SDS011;64752;48.870;9.082;2024-03-17T09:34:42;8.35;;;6.40;;
76053;SDS011;64752;48.870;9.082;2024-03-17T09:37:13;8.10;;;6.65;;
76053;SDS011;64752;48.870;9.082;2024-03-17T09:39:39;9.23;;;6.90;;
76053;SDS011;64752;48.870;9.082;2024-03-17T09:42:04;9.40;;;7.10;;
76053;SDS011;64752;48.870;9.082;2024-03-17T09:44:31;8.05;;;6.75;;
76053;SDS011;64752;48.870;9.082;2024-03-17T09:46:59;8.02;;;6.32;;
76053;SDS011;64752;48.870;9.082;2024-03-17T09:49:25;8.40;;;6.60;;
76053;SDS011;64752;48.870;9.082;2024-03-17T09:51:51;8.53;;;5.90;;
76053;SDS011;64752;48.870;9.082;2024-03-17T09:54:22;8.38;;;5.95;;
76053;SDS011;64752;48.870;9.082;2024-03-17T09:56:47;8.03;;;6.27;;
76053;SDS011;64752;48.870;9.082;2024-03-17T09:59:12;8.90;;;5.73;;
76053;SDS011;64752;48.870;9.082;2024-03-17T10:01:38;6.50;;;5.40;;
76053;SDS011;64752;48.870;9.082;2024-03-17T10:04:03;6.83;;;5.20;;
76053;SDS011;64752;48.870;9.082;2024-03-17T10:06:29;6.47;;;5.23;;
76053;SDS011;64752;48.870;9.082;2024-03-17T10:08:57;7.00;;;5.38;;
76053;SDS011;64752;48.870;9.082;2024-03-17T10:11:24;8.02;;;5.47;;
76053;SDS011;64752;48.870;9.082;2024-03-17T10:14:03;7.93;;;5.40;;
76053;SDS011;64752;48.870;9.082;2024-03-17T10:16:31;6.88;;;5.05;;
76053;SDS011;64752;48.870;9.082;2024-03-17T10:21:36;7.68;;;5.40;;
76053;SDS011;64752;48.870;9.082;2024-03-17T10:26:32;8.20;;;5.07;;
76053;SDS011;64752;48.870;9.082;2024-03-17T10:29:01;6.97;;;4.97;;
76053;SDS011;64752;48.870;9.082;2024-03-17T10:31:26;6.13;;;4.80;;
76053;SDS011;64752;48.870;9.082;2024-03-17T10:34:01;6.70;;;4.67;;
76053;SDS011;64752;48.870;9.082;2024-03-17T10:36:27;6.25;;;4.13;;
76053;SDS011;64752;48.870;9.082;2024-03-17T10:38:52;6.27;;;4.00;;
76053;SDS011;64752;48.870;9.082;2024-03-17T10:41:21;8.55;;;4.63;;
76053;SDS011;64752;48.870;9.082;2024-03-17T10:43:47;7.93;;;4.30;;
76053;SDS011;64752;48.870;9.082;2024-03-17T10:46:13;4.80;;;3.60;;
76053;SDS011;64752;48.870;9.082;2024-03-17T10:48:40;6.07;;;3.58;;
76053;SDS011;64752;48.870;9.082;2024-03-17T10:51:06;4.00;;;3.17;;
76053;SDS011;64752;48.870;9.082;2024-03-17T10:53:41;5.18;;;3.50;;
76053;SDS011;64752;48.870;9.082;2024-03-17T10:56:11;5.90;;;3.30;;
76053;SDS011;64752;48.870;9.082;2024-03-17T10:58:44;4.72;;;3.10;;
76053;SDS011;64752;48.870;9.082;2024-03-17T11:01:14;4.38;;;2.90;;
76053;SDS011;64752;48.870;9.082;2024-03-17T11:03:40;7.30;;;3.30;;
76053;SDS011;64752;48.870;9.082;2024-03-17T11:06:07;4.72;;;2.88;;
76053;SDS011;64752;48.870;9.082;2024-03-17T11:08:33;4.13;;;2.90;;
76053;SDS011;64752;48.870;9.082;2024-03-17T11:11:06;7.43;;;2.95;;
76053;SDS011;64752;48.870;9.082;2024-03-17T11:13:32;5.70;;;3.13;;
76053;SDS011;64752;48.870;9.082;2024-03-17T11:15:58;4.50;;;3.00;;
76053;SDS011;64752;48.870;9.082;2024-03-17T11:21:05;6.20;;;3.60;;
76053;SDS011;64752;48.870;9.082;2024-03-17T11:23:35;7.25;;;3.67;;
76053;SDS011;64752;48.870;9.082;2024-03-17T11:26:02;4.82;;;3.15;;
76053;SDS011;64752;48.870;9.082;2024-03-17T11:34:04;5.00;;;3.40;;
76053;SDS011;64752;48.870;9.082;2024-03-17T11:36:33;6.18;;;4.18;;
76053;SDS011;64752;48.870;9.082;2024-03-17T11:39:09;6.30;;;4.13;;
76053;SDS011;64752;48.870;9.082;2024-03-17T11:41:44;6.35;;;3.97;;
76053;SDS011;64752;48.870;9.082;2024-03-17T11:46:57;6.57;;;4.28;;
76053;SDS011;64752;48.870;9.082;2024-03-17T11:49:31;5.80;;;4.20;;
76053;SDS011;64752;48.870;9.082;2024-03-17T11:54:45;4.57;;;3.83;;
76053;SDS011;64752;48.870;9.082;2024-03-17T11:57:23;5.03;;;3.75;;
76053;SDS011;64752;48.870;9.082;2024-03-17T12:02:18;6.18;;;3.90;;
76053;SDS011;64752;48.870;9.082;2024-03-17T12:04:58;6.32;;;4.05;;
76053;SDS011;64752;48.870;9.082;2024-03-17T12:07:25;5.65;;;3.80;;
76053;SDS011;64752;48.870;9.082;2024-03-17T12:09:52;4.40;;;3.50;;
76053;SDS011;64752;48.870;9.082;2024-03-17T12:14:45;5.18;;;3.35;;
76053;SDS011;64752;48.870;9.082;2024-03-17T12:17:13;5.38;;;3.90;;
76053;SDS011;64752;48.870;9.082;2024-03-17T12:19:39;7.40;;;3.75;;
76053;SDS011;64752;48.870;9.082;2024-03-17T12:22:07;4.38;;;3.15;;
76053;SDS011;64752;48.870;9.082;2024-03-17T12:27:00;5.35;;;3.30;;
76053;SDS011;64752;48.870;9.082;2024-03-17T12:29:31;6.50;;;3.53;;
76053;SDS011;64752;48.870;9.082;2024-03-17T12:32:00;4.63;;;3.53;;
76053;SDS011;64752;48.870;9.082;2024-03-17T12:34:33;7.68;;;4.15;;
76053;SDS011;64752;48.870;9.082;2024-03-17T12:36:59;4.85;;;3.33;;
76053;SDS011;64752;48.870;9.082;2024-03-17T12:39:29;4.53;;;3.10;;
76053;SDS011;64752;48.870;9.082;2024-03-17T12:42:03;7.15;;;3.28;;
76053;SDS011;64752;48.870;9.082;2024-03-17T12:44:31;5.72;;;3.70;;
76053;SDS011;64752;48.870;9.082;2024-03-17T12:46:57;4.95;;;3.40;;
76053;SDS011;64752;48.870;9.082;2024-03-17T12:49:27;5.57;;;3.45;;
76053;SDS011;64752;48.870;9.082;2024-03-17T12:51:53;6.38;;;3.97;;
76053;SDS011;64752;48.870;9.082;2024-03-17T12:54:20;5.70;;;3.78;;
76053;SDS011;64752;48.870;9.082;2024-03-17T12:56:48;8.57;;;3.45;;
76053;SDS011;64752;48.870;9.082;2024-03-17T12:59:42;4.97;;;3.50;;
76053;SDS011;64752;48.870;9.082;2024-03-17T13:02:27;6.45;;;3.72;;
76053;SDS011;64752;48.870;9.082;2024-03-17T13:07:41;5.80;;;3.60;;
76053;SDS011;64752;48.870;9.082;2024-03-17T13:10:07;5.20;;;3.50;;
76053;SDS011;64752;48.870;9.082;2024-03-17T13:12:33;5.80;;;3.50;;
76053;SDS011;64752;48.870;9.082;2024-03-17T13:14:59;7.85;;;3.35;;
76053;SDS011;64752;48.870;9.082;2024-03-17T13:17:25;5.30;;;3.77;;
76053;SDS011;64752;48.870;9.082;2024-03-17T13:19:50;5.30;;;3.03;;
76053;SDS011;64752;48.870;9.082;2024-03-17T13:22:16;5.83;;;3.80;;
76053;SDS011;64752;48.870;9.082;2024-03-17T13:24:41;7.27;;;3.67;;
76053;SDS011;64752;48.870;9.082;2024-03-17T13:27:06;4.57;;;3.30;;
76053;SDS011;64752;48.870;9.082;2024-03-17T13:29:33;7.65;;;3.10;;
76053;SDS011;64752;48.870;9.082;2024-03-17T13:32:04;5.15;;;3.00;;
76053;SDS011;64752;48.870;9.082;2024-03-17T13:34:30;5.87;;;3.00;;
76053;SDS011;64752;48.870;9.082;2024-03-17T13:36:55;6.03;;;3.60;;
76053;SDS011;64752;48.870;9.082;2024-03-17T13:39:21;5.07;;;2.63;;
76053;SDS011;64752;48.870;9.082;2024-03-17T13:41:47;5.70;;;3.03;;
76053;SDS011;64752;48.870;9.082;2024-03-17T13:44:14;5.40;;;3.20;;
76053;SDS011;64752;48.870;9.082;2024-03-17T13:46:40;5.15;;;3.53;;
76053;SDS011;64752;48.870;9.082;2024-03-17T13:49:09;5.30;;;3.10;;
76053;SDS011;64752;48.870;9.082;2024-03-17T13:51:34;6.35;;;3.13;;
76053;SDS011;64752;48.870;9.082;2024-03-17T13:54:00;4.30;;;2.83;;
76053;SDS011;64752;48.870;9.082;2024-03-17T13:56:26;4.83;;;2.70;;
76053;SDS011;64752;48.870;9.082;2024-03-17T13:58:51;3.73;;;2.67;;
76053;SDS011;64752;48.870;9.082;2024-03-17T14:01:17;5.73;;;3.23;;
76053;SDS011;64752;48.870;9.082;2024-03-17T14:03:42;6.23;;;3.00;;
76053;SDS011;64752;48.870;9.082;2024-03-17T14:06:08;4.63;;;2.90;;
76053;SDS011;64752;48.870;9.082;2024-03-17T14:08:34;5.28;;;2.92;;
76053;SDS011;64752;48.870;9.082;2024-03-17T14:11:00;5.53;;;2.80;;
76053;SDS011;64752;48.870;9.082;2024-03-17T14:13:26;6.63;;;3.10;;
76053;SDS011;64752;48.870;9.082;2024-03-17T14:15:51;4.40;;;2.90;;
76053;SDS011;64752;48.870;9.082;2024-03-17T14:18:20;4.40;;;2.85;;
76053;SDS011;64752;48.870;9.082;2024-03-17T14:20:46;8.57;;;3.07;;
76053;SDS011;64752;48.870;9.082;2024-03-17T14:23:11;4.77;;;2.60;;
76053;SDS011;64752;48.870;9.082;2024-03-17T14:25:37;5.20;;;2.70;;
76053;SDS011;64752;48.870;9.082;2024-03-17T14:28:03;4.15;;;2.55;;
76053;SDS011;64752;48.870;9.082;2024-03-17T14:30:30;5.63;;;2.53;;
76053;SDS011;64752;48.870;9.082;2024-03-17T14:32:56;4.43;;;2.55;;
76053;SDS011;64752;48.870;9.082;2024-03-17T14:35:21;5.00;;;2.53;;
76053;SDS011;64752;48.870;9.082;2024-03-17T14:37:47;3.70;;;2.08;;
76053;SDS011;64752;48.870;9.082;2024-03-17T14:40:14;4.65;;;2.55;;
76053;SDS011;64752;48.870;9.082;2024-03-17T14:42:48;5.78;;;2.75;;
76053;SDS011;64752;48.870;9.082;2024-03-17T14:45:15;5.40;;;2.28;;
76053;SDS011;64752;48.870;9.082;2024-03-17T14:47:41;6.13;;;2.65;;
76053;SDS011;64752;48.870;9.082;2024-03-17T14:50:06;4.37;;;2.47;;
76053;SDS011;64752;48.870;9.082;2024-03-17T14:52:32;5.43;;;2.47;;
76053;SDS011;64752;48.870;9.082;2024-03-17T14:54:57;4.87;;;2.80;;
76053;SDS011;64752;48.870;9.082;2024-03-17T14:57:23;4.13;;;2.37;;
76053;SDS011;64752;48.870;9.082;2024-03-17T14:59:48;3.77;;;2.30;;
76053;SDS011;64752;48.870;9.082;2024-03-17T15:02:14;3.70;;;2.20;;
76053;SDS011;64752;48.870;9.082;2024-03-17T15:04:40;6.47;;;2.35;;
76053;SDS011;64752;48.870;9.082;2024-03-17T15:07:06;2.90;;;2.00;;
76053;SDS011;64752;48.870;9.082;2024-03-17T15:09:31;4.63;;;2.17;;
76053;SDS011;64752;48.870;9.082;2024-03-17T15:11:57;3.03;;;2.23;;
76053;SDS011;64752;48.870;9.082;2024-03-17T15:14:23;4.37;;;2.57;;